Time;durP1;ratioP1;P1;durP2;ratioP2;P2;SDS_P1;SDS_P2;PMS_P1;PMS_P2;Temp;Humidity;BMP_temperature;BMP_pressure;BME280_temperature;BME280_humidity;BME280_pressure;Samples;Min_cycle;Max_cycle;Signal;HPM_P1;HPM_P2
2024/01/25 00:00:47;;;;;;;;;;;;;;;7.82;100.00;102788.56;6242251;23;19903;-80
2024/01/25 00:03:13;;;;;;;;;;;;;;;7.81;100.00;102781.56;6243255;23;20373;-80
2024/01/25 00:05:38;;;;;;;;;;;;;;;7.79;100.00;102767.59;6243258;23;19911;-80
2024/01/25 00:08:03;;;;;;;;;;;;;;;7.77;100.00;102773.47;6216088;23;19908;-80
2024/01/25 00:10:29;;;;;;;;;;;;;;;7.75;100.00;102782.84;6242295;23;19904;-80
2024/01/25 00:12:54;;;;;;;;;;;;;;;7.73;100.00;102769.75;6216094;23;20289;-80
2024/01/25 00:15:19;;;;;;;;;;;;;;;7.70;100.00;102777.34;6215973;23;19977;-80
2024/01/25 00:17:44;;;;;;;;;;;;;;;7.69;100.00;102774.66;6242531;23;19907;-80
2024/01/25 00:20:10;;;;;;;;;;;;;;;7.66;100.00;102775.34;6242570;23;19908;-80
2024/01/25 00:22:36;;;;;;;;;;;;;;;7.63;100.00;102776.06;6243110;23;19918;-80
2024/01/25 00:25:02;;;;;;;;;;;;;;;7.61;100.00;102771.56;6215947;23;19911;-80
2024/01/25 00:27:27;;;;;;;;;;;;;;;7.57;100.00;102764.38;6242566;23;19957;-80
2024/01/25 00:29:52;;;;;;;;;;;;;;;7.54;100.00;102770.25;6241938;23;20388;-80
2024/01/25 00:32:17;;;;;;;;;;;;;;;7.51;100.00;102774.34;6215803;23;19903;-80
2024/01/25 00:34:43;;;;;;;;;;;;;;;7.49;100.00;102780.31;6243240;23;19943;-80
2024/01/25 00:37:08;;;;;;;;;;;;;;;7.48;100.00;102781.09;6242182;23;19903;-80
2024/01/25 00:39:34;;;;;;;;;;;;;;;7.44;100.00;102779.13;6242497;23;19904;-80
2024/01/25 00:42:04;;;;;;;;;;;;;;;7.43;100.00;102779.91;6246330;22;19919;-80
2024/01/25 00:44:29;;;;;;;;;;;;;;;7.40;100.00;102781.38;6246438;22;19903;-80
2024/01/25 00:46:54;;;;;;;;;;;;;;;7.39;100.00;102784.78;6273713;22;19934;-80
2024/01/25 00:49:20;;;;;;;;;;;;;;;7.35;100.00;102778.47;6272878;22;19925;-80
2024/01/25 00:51:47;;;;;;;;;;;;;;;7.33;100.00;102782.69;6273070;22;20399;-80
2024/01/25 00:54:12;;;;;;;;;;;;;;;7.29;100.00;102788.44;6272931;22;19929;-80
2024/01/25 00:56:38;;;;;;;;;;;;;;;7.27;100.00;102792.59;6273553;22;19903;-80
2024/01/25 00:59:03;;;;;;;;;;;;;;;7.23;100.00;102786.31;6245182;22;20025;-80
2024/01/25 01:01:28;;;;;;;;;;;;;;;7.22;100.00;102794.00;6273284;22;19903;-80
2024/01/25 01:03:55;;;;;;;;;;;;;;;7.18;100.00;102789.41;6273613;22;19956;-80
2024/01/25 01:06:20;;;;;;;;;;;;;;;7.17;100.00;102797.97;6273484;22;19903;-80
2024/01/25 01:08:46;;;;;;;;;;;;;;;7.12;100.00;102793.34;6272270;22;19911;-80
2024/01/25 01:11:11;;;;;;;;;;;;;;;7.11;100.00;102801.94;6271917;22;19907;-80
2024/01/25 01:13:36;;;;;;;;;;;;;;;7.07;100.00;102797.34;6273999;22;19982;-80
2024/01/25 01:16:02;;;;;;;;;;;;;;;7.06;100.00;102802.41;6246237;22;19903;-80
2024/01/25 01:18:27;;;;;;;;;;;;;;;7.03;100.00;102800.50;6272992;22;19965;-80
2024/01/25 01:20:52;;;;;;;;;;;;;;;7.01;100.00;102803.78;6272376;22;19918;-80
2024/01/25 01:23:17;;;;;;;;;;;;;;;6.99;100.00;102801.06;6246124;22;19907;-80
2024/01/25 01:25:43;;;;;;;;;;;;;;;6.96;100.00;102804.34;6273388;22;19969;-80
2024/01/25 01:28:08;;;;;;;;;;;;;;;6.93;100.00;102806.72;6273360;22;19911;-80
2024/01/25 01:30:33;;;;;;;;;;;;;;;6.92;100.00;102801.44;6271770;22;19903;-80
2024/01/25 01:32:58;;;;;;;;;;;;;;;6.88;100.00;102804.59;6272743;22;19986;-80
2024/01/25 01:35:24;;;;;;;;;;;;;;;6.85;100.00;102817.34;6272994;22;19914;-80
2024/01/25 01:37:49;;;;;;;;;;;;;;;6.84;100.00;102813.88;6272988;22;19907;-80
2024/01/25 01:40:14;;;;;;;;;;;;;;;6.82;100.00;102814.53;6271712;22;19918;-80
2024/01/25 01:42:39;;;;;;;;;;;;;;;6.80;100.00;102814.44;6272988;22;19911;-80
2024/01/25 01:45:05;;;;;;;;;;;;;;;6.76;100.00;102810.75;6273724;22;19903;-80
2024/01/25 01:47:30;;;;;;;;;;;;;;;6.76;100.00;102820.19;6273370;22;19915;-80
2024/01/25 01:49:55;;;;;;;;;;;;;;;6.74;100.00;102817.50;6271422;22;19907;-80
2024/01/25 01:52:21;;;;;;;;;;;;;;;6.72;100.00;102826.84;6272706;22;19903;-80
2024/01/25 01:54:47;;;;;;;;;;;;;;;6.71;100.00;102843.19;6271960;22;19903;-80
2024/01/25 01:57:13;;;;;;;;;;;;;;;6.71;100.00;102842.28;6246068;22;20328;-80
2024/01/25 01:59:38;;;;;;;;;;;;;;;6.69;100.00;102834.41;6272940;22;19946;-80
2024/01/25 02:02:03;;;;;;;;;;;;;;;6.66;100.00;102841.03;6272380;22;19909;-80
2024/01/25 02:04:28;;;;;;;;;;;;;;;6.62;100.00;102842.53;6272723;22;19984;-80
2024/01/25 02:06:54;;;;;;;;;;;;;;;6.59;100.00;102850.09;6272624;22;20341;-80
2024/01/25 02:09:20;;;;;;;;;;;;;;;6.57;100.00;102849.06;6272523;22;19978;-80
2024/01/25 02:11:45;;;;;;;;;;;;;;;6.53;100.00;102854.78;6272195;22;19905;-80
2024/01/25 02:14:11;;;;;;;;;;;;;;;6.51;100.00;102859.88;6272883;22;19974;-80
2024/01/25 02:16:37;;;;;;;;;;;;;;;6.51;100.00;102869.34;6272616;22;19973;-80
2024/01/25 02:19:03;;;;;;;;;;;;;;;6.49;100.00;102866.63;6245462;22;20322;-80
2024/01/25 02:21:28;;;;;;;;;;;;;;;6.46;100.00;102870.69;6245819;22;19903;-80
2024/01/25 02:23:53;;;;;;;;;;;;;;;6.43;100.00;102871.34;6272230;22;20314;-80
2024/01/25 02:26:19;;;;;;;;;;;;;;;6.40;100.00;102869.47;6273211;22;19903;-80
2024/01/25 02:28:44;;;;;;;;;;;;;;;6.37;100.00;102878.66;6273276;22;19911;-80
2024/01/25 02:31:09;;;;;;;;;;;;;;;6.33;100.00;102885.34;6245325;22;19978;-80
2024/01/25 02:33:34;;;;;;;;;;;;;;;6.31;100.00;102886.00;6244304;22;19907;-80
2024/01/25 02:35:59;;;;;;;;;;;;;;;6.28;100.00;102885.78;6273075;22;19915;-80
2024/01/25 02:38:25;;;;;;;;;;;;;;;6.26;100.00;102885.66;6274841;22;19903;-80
2024/01/25 02:40:50;;;;;;;;;;;;;;;6.24;100.00;102884.63;6274480;22;19911;-80
2024/01/25 02:43:15;;;;;;;;;;;;;;;6.19;100.00;102881.72;6274137;22;19947;-80
2024/01/25 02:45:40;;;;;;;;;;;;;;;6.16;100.00;102885.78;6274811;22;19903;-80
2024/01/25 02:48:06;;;;;;;;;;;;;;;6.16;100.00;102890.94;6274210;22;19911;-80
2024/01/25 02:50:31;;;;;;;;;;;;;;;6.14;100.00;102892.50;6274781;22;20325;-81
2024/01/25 02:52:57;;;;;;;;;;;;;;;6.11;100.00;102875.03;6274285;22;19933;-80
2024/01/25 02:55:22;;;;;;;;;;;;;;;6.09;100.00;102877.53;6274450;22;20013;-80
2024/01/25 02:57:47;;;;;;;;;;;;;;;6.05;100.00;102875.53;6274630;22;19934;-80
2024/01/25 03:00:13;;;;;;;;;;;;;;;6.02;100.00;102874.38;6248012;22;19953;-80
2024/01/25 03:02:38;;;;;;;;;;;;;;;6.00;100.00;102884.63;6273861;22;20237;-80
2024/01/25 03:05:03;;;;;;;;;;;;;;;5.99;100.00;102880.22;6271168;22;20277;-81
2024/01/25 03:07:29;;;;;;;;;;;;;;;5.96;100.00;102869.59;6244635;22;19978;-80
2024/01/25 03:09:54;;;;;;;;;;;;;;;5.95;100.00;102879.84;6274437;22;20242;-80
2024/01/25 03:12:19;;;;;;;;;;;;;;;5.92;100.00;102878.84;6274230;22;19903;-80
2024/01/25 03:14:44;;;;;;;;;;;;;;;5.92;100.00;102880.50;6246919;22;20310;-80
2024/01/25 03:17:11;;;;;;;;;;;;;;;5.88;100.00;102876.78;6247195;22;19907;-80
2024/01/25 03:19:37;;;;;;;;;;;;;;;5.87;100.00;102874.09;6247591;22;20046;-80
2024/01/25 03:22:02;;;;;;;;;;;;;;;5.83;100.00;102865.19;6272881;22;20326;-80
2024/01/25 03:24:27;;;;;;;;;;;;;;;5.81;100.00;102865.84;6243338;22;19949;-80
2024/01/25 03:26:53;;;;;;;;;;;;;;;5.77;100.00;102864.72;6269012;22;19914;-80
2024/01/25 03:29:18;;;;;;;;;;;;;;;5.73;100.00;102866.16;6244933;22;19990;-80
2024/01/25 03:31:43;;;;;;;;;;;;;;;5.69;100.00;102868.41;6269137;22;19907;-81
2024/01/25 03:34:08;;;;;;;;;;;;;;;5.67;100.00;102878.63;6270162;22;19933;-81
2024/01/25 03:36:35;;;;;;;;;;;;;;;5.64;100.00;102875.81;6273379;22;19986;-81
2024/01/25 03:39:01;;;;;;;;;;;;;;;5.63;100.00;102878.28;6270108;22;19911;-80
2024/01/25 03:41:29;;;;;;;;;;;;;;;5.61;100.00;102882.47;6273867;22;19953;-80
2024/01/25 03:43:54;;;;;;;;;;;;;;;5.58;100.00;102885.72;6273654;22;19915;-80
2024/01/25 03:46:19;;;;;;;;;;;;;;;5.56;100.00;102889.84;6273864;22;20277;-81
2024/01/25 03:48:44;;;;;;;;;;;;;;;5.56;100.00;102897.59;6245159;22;20384;-80
2024/01/25 03:51:10;;;;;;;;;;;;;;;5.53;100.00;102890.53;6268648;22;19914;-81
2024/01/25 03:53:35;;;;;;;;;;;;;;;5.52;100.00;102893.88;6271530;22;20386;-80
2024/01/25 03:56:00;;;;;;;;;;;;;;;5.51;100.00;102896.38;6272676;22;19910;-81
2024/01/25 03:58:26;;;;;;;;;;;;;;;5.47;100.00;102892.63;6246340;22;19933;-80
2024/01/25 04:00:51;;;;;;;;;;;;;;;5.43;100.00;102887.09;6273373;22;20292;-81
2024/01/25 04:03:16;;;;;;;;;;;;;;;5.41;100.00;102879.22;6272502;22;19907;-80
2024/01/25 04:05:41;;;;;;;;;;;;;;;5.39;100.00;102880.81;6246103;22;19941;-80
2024/01/25 04:08:07;;;;;;;;;;;;;;;5.35;100.00;102883.94;6244582;22;20017;-80
2024/01/25 04:10:32;;;;;;;;;;;;;;;5.32;100.00;102888.88;6245671;22;19911;-81
2024/01/25 04:12:58;;;;;;;;;;;;;;;5.27;100.00;102891.09;6246143;22;19914;-81
2024/01/25 04:15:23;;;;;;;;;;;;;;;5.24;100.00;102901.16;6246856;22;19911;-81
2024/01/25 04:17:48;;;;;;;;;;;;;;;5.20;100.00;102900.03;6272204;22;20322;-81
2024/01/25 04:20:14;;;;;;;;;;;;;;;5.15;100.00;102897.88;6246361;22;19935;-80
2024/01/25 04:22:40;;;;;;;;;;;;;;;5.09;100.00;102893.13;6272516;22;19994;-81
2024/01/25 04:25:05;;;;;;;;;;;;;;;5.07;100.00;102893.78;6272890;22;19934;-81
2024/01/25 04:27:31;;;;;;;;;;;;;;;5.06;100.00;102905.81;6273784;22;19910;-80
2024/01/25 04:29:56;;;;;;;;;;;;;;;5.05;100.00;102906.56;6274238;22;19910;-81
2024/01/25 04:32:21;;;;;;;;;;;;;;;5.01;100.00;102889.00;6272829;22;20282;-81
2024/01/25 04:34:47;;;;;;;;;;;;;;;4.99;100.00;102882.84;6273110;22;20297;-81
2024/01/25 04:37:13;;;;;;;;;;;;;;;4.98;100.00;102887.13;6272009;22;19903;-80
2024/01/25 04:39:38;;;;;;;;;;;;;;;4.98;100.00;102886.19;6274066;22;19970;-81
2024/01/25 04:42:03;;;;;;;;;;;;;;;4.94;100.00;102892.81;6271540;22;19915;-80
2024/01/25 04:44:28;;;;;;;;;;;;;;;4.91;100.00;102895.16;6272752;22;19903;-81
2024/01/25 04:46:54;;;;;;;;;;;;;;;4.91;100.00;102890.00;6273408;22;19907;-81
2024/01/25 04:49:19;;;;;;;;;;;;;;;4.93;100.00;102887.53;6246405;22;19907;-81
2024/01/25 04:51:45;;;;;;;;;;;;;;;4.92;100.00;102875.38;6271735;22;19943;-81
2024/01/25 04:54:12;;;;;;;;;;;;;;;4.93;100.00;102890.13;6245567;22;19903;-81
2024/01/25 04:56:38;;;;;;;;;;;;;;;4.90;100.00;102883.00;6271379;22;19914;-81
2024/01/25 04:59:03;;;;;;;;;;;;;;;4.90;100.00;102888.19;6245545;22;19906;-80
2024/01/25 05:01:28;;;;;;;;;;;;;;;4.88;100.00;102895.81;6269861;22;19934;-80
2024/01/25 05:03:53;;;;;;;;;;;;;;;4.85;100.00;102892.97;6272803;22;20219;-81
2024/01/25 05:06:19;;;;;;;;;;;;;;;4.84;100.00;102892.88;6273067;22;19934;-81
2024/01/25 05:08:44;;;;;;;;;;;;;;;4.80;100.00;102895.97;6270502;22;20437;-81
2024/01/25 05:11:10;;;;;;;;;;;;;;;4.75;100.00;102899.84;6272234;22;20381;-81
2024/01/25 05:13:35;;;;;;;;;;;;;;;4.69;100.00;102887.34;6268134;22;19912;-81
2024/01/25 05:16:00;;;;;;;;;;;;;;;4.64;100.00;102879.25;6242331;22;20359;-81
2024/01/25 05:18:25;;;;;;;;;;;;;;;4.64;100.00;102878.34;6267554;22;19907;-81
2024/01/25 05:20:51;;;;;;;;;;;;;;;4.63;100.00;102880.00;6270463;22;20215;-81
2024/01/25 05:23:16;;;;;;;;;;;;;;;4.62;100.00;102877.31;6268142;22;19907;-81
2024/01/25 05:25:41;;;;;;;;;;;;;;;4.62;100.00;102875.66;6268027;22;19899;-81
2024/01/25 05:28:06;;;;;;;;;;;;;;;4.61;100.00;102881.56;6268113;22;19911;-80
2024/01/25 05:30:32;;;;;;;;;;;;;;;4.61;100.00;102880.69;6268395;22;19925;-81
2024/01/25 05:32:57;;;;;;;;;;;;;;;4.56;100.00;102882.88;6269050;22;19910;-82
2024/01/25 05:35:23;;;;;;;;;;;;;;;4.53;100.00;102877.47;6241018;22;20277;-81
2024/01/25 05:37:49;;;;;;;;;;;;;;;4.52;100.00;102888.59;6242203;22;19907;-81
2024/01/25 05:40:14;;;;;;;;;;;;;;;4.46;100.00;102877.75;6268527;22;19903;-81
2024/01/25 05:42:40;;;;;;;;;;;;;;;4.44;100.00;102884.47;6269477;22;19918;-81
2024/01/25 05:45:05;;;;;;;;;;;;;;;4.41;100.00;102882.53;6268503;22;19903;-81
2024/01/25 05:47:31;;;;;;;;;;;;;;;4.41;100.00;102894.56;6270391;22;19903;-81
2024/01/25 05:49:56;;;;;;;;;;;;;;;4.42;100.00;102891.16;6270983;22;19958;-81
2024/01/25 05:52:22;;;;;;;;;;;;;;;4.41;100.00;102894.56;6269583;22;19907;-81
2024/01/25 05:54:47;;;;;;;;;;;;;;;4.41;100.00;102905.75;6269905;22;20317;-81
2024/01/25 05:57:12;;;;;;;;;;;;;;;4.39;100.00;102915.06;6241316;22;20071;-81
2024/01/25 05:59:38;;;;;;;;;;;;;;;4.38;100.00;102918.41;6240599;22;19907;-81
2024/01/25 06:02:03;;;;;;;;;;;;;;;4.40;100.00;102915.97;6244839;22;19907;-81
2024/01/25 06:04:28;;;;;;;;;;;;;;;4.40;100.00;102910.81;6241572;22;20243;-81
2024/01/25 06:06:53;;;;;;;;;;;;;;;4.37;100.00;102901.13;6242504;22;19981;-81
2024/01/25 06:09:19;;;;;;;;;;;;;;;4.35;100.00;102905.28;6270529;22;19949;-81
2024/01/25 06:11:44;;;;;;;;;;;;;;;4.33;100.00;102906.81;6269327;22;19930;-81
2024/01/25 06:14:09;;;;;;;;;;;;;;;4.28;100.00;102903.84;6270776;22;19906;-81
2024/01/25 06:16:35;;;;;;;;;;;;;;;4.26;100.00;102899.34;6271672;22;19903;-80
2024/01/25 06:19:01;;;;;;;;;;;;;;;4.24;100.00;102894.03;6273073;22;19942;-81
2024/01/25 06:21:26;;;;;;;;;;;;;;;4.18;100.00;102893.56;6270814;22;19914;-81
2024/01/25 06:23:52;;;;;;;;;;;;;;;4.17;100.00;102904.63;6269761;22;19899;-81
2024/01/25 06:26:17;;;;;;;;;;;;;;;4.14;100.00;102907.88;6270994;22;19914;-81
2024/01/25 06:28:42;;;;;;;;;;;;;;;4.12;100.00;102916.28;6270017;22;19971;-81
2024/01/25 06:31:07;;;;;;;;;;;;;;;4.08;100.00;102909.03;6269726;22;20812;-81
2024/01/25 06:33:32;;;;;;;;;;;;;;;4.07;100.00;102912.38;6242952;22;20695;-81
2024/01/25 06:35:58;;;;;;;;;;;;;;;4.05;100.00;102912.25;6271148;22;19910;-81
2024/01/25 06:38:23;;;;;;;;;;;;;;;4.05;100.00;102929.44;6242961;22;19903;-81
2024/01/25 06:40:48;;;;;;;;;;;;;;;4.00;100.00;102937.69;6270739;22;19903;-81
2024/01/25 06:43:13;;;;;;;;;;;;;;;3.97;100.00;102929.69;6241282;23;19999;-81
2024/01/25 06:45:42;;;;;;;;;;;;;;;3.94;100.00;102926.84;6239744;23;19907;-81
2024/01/25 06:48:08;;;;;;;;;;;;;;;3.90;100.00;102921.31;6238816;23;19922;-81
2024/01/25 06:50:34;;;;;;;;;;;;;;;3.86;100.00;102927.88;6244177;23;19910;-81
2024/01/25 06:52:59;;;;;;;;;;;;;;;3.83;100.00;102922.47;6242728;23;20238;-81
2024/01/25 06:55:24;;;;;;;;;;;;;;;3.82;100.00;102924.16;6244169;22;21585;-81
2024/01/25 06:57:49;;;;;;;;;;;;;;;3.83;100.00;102930.19;6240266;23;20230;-81
2024/01/25 07:00:15;;;;;;;;;;;;;;;3.80;100.00;102932.53;6239578;23;20337;-81
2024/01/25 07:02:41;;;;;;;;;;;;;;;3.73;100.00;102925.94;6262233;22;19962;-81
2024/01/25 07:05:06;;;;;;;;;;;;;;;3.68;100.00;102926.31;6240156;23;19907;-81
2024/01/25 07:07:32;;;;;;;;;;;;;;;3.67;100.00;102928.00;6243960;23;20319;-81
2024/01/25 07:09:58;;;;;;;;;;;;;;;3.67;100.00;102929.69;6242363;23;19907;-81
2024/01/25 07:12:23;;;;;;;;;;;;;;;3.64;100.00;102926.06;6244140;23;19904;-81
2024/01/25 07:14:48;;;;;;;;;;;;;;;3.61;100.00;102928.38;6244380;23;19979;-81
2024/01/25 07:17:13;;;;;;;;;;;;;;;3.59;100.00;102929.94;6244099;23;19903;-81
2024/01/25 07:19:39;;;;;;;;;;;;;;;3.59;100.00;102921.28;6244095;23;19935;-81
2024/01/25 07:22:04;;;;;;;;;;;;;;;3.58;100.00;102919.50;6244082;23;19903;-81
2024/01/25 07:24:29;;;;;;;;;;;;;;;3.57;100.00;102920.25;6244416;23;19910;-81
2024/01/25 07:26:55;;;;;;;;;;;;;;;3.54;100.00;102927.72;6244103;23;20378;-81
2024/01/25 07:29:20;;;;;;;;;;;;;;;3.51;100.00;102928.34;6242328;23;19911;-81
2024/01/25 07:31:45;;;;;;;;;;;;;;;3.51;100.00;102933.50;6242418;23;19911;-81
2024/01/25 07:34:11;;;;;;;;;;;;;;;3.53;100.00;102937.09;6244233;23;19935;-81
2024/01/25 07:36:36;;;;;;;;;;;;;;;3.55;100.00;102943.31;6242444;23;20289;-81
2024/01/25 07:39:02;;;;;;;;;;;;;;;3.57;100.00;102954.66;6242523;23;19979;-81
2024/01/25 07:41:27;;;;;;;;;;;;;;;3.58;100.00;102946.16;6240570;23;19960;-81
2024/01/25 07:43:55;;;;;;;;;;;;;;;3.59;100.00;102939.31;6266119;22;19915;-81
2024/01/25 07:46:20;;;;;;;;;;;;;;;3.62;100.00;102943.06;6242791;22;20238;-81
2024/01/25 07:48:45;;;;;;;;;;;;;;;3.66;100.00;102941.66;6243168;22;19911;-81
2024/01/25 07:51:12;;;;;;;;;;;;;;;3.68;100.00;102936.63;6268437;22;19907;-81
2024/01/25 07:53:37;;;;;;;;;;;;;;;3.70;100.00;102932.50;6271999;22;19899;-81
2024/01/25 07:56:02;;;;;;;;;;;;;;;3.73;100.00;102928.50;6271545;22;19903;-81
2024/01/25 07:58:30;;;;;;;;;;;;;;;3.77;100.00;102938.31;6271296;22;19907;-81
2024/01/25 08:00:55;;;;;;;;;;;;;;;3.81;100.00;102939.50;6273396;22;19978;-81
2024/01/25 08:03:20;;;;;;;;;;;;;;;3.84;100.00;102942.31;6273285;22;20334;-81
2024/01/25 08:05:46;;;;;;;;;;;;;;;3.87;100.00;102957.13;6274340;22;20241;-81
2024/01/25 08:08:11;;;;;;;;;;;;;;;3.88;100.00;102946.97;6273891;22;19961;-81
2024/01/25 08:10:37;;;;;;;;;;;;;;;3.89;100.00;102953.91;6273072;22;19906;-81
2024/01/25 08:13:02;;;;;;;;;;;;;;;3.88;100.00;102952.13;6244866;22;19910;-81
2024/01/25 08:15:28;;;;;;;;;;;;;;;3.89;100.00;102947.88;6244975;22;19911;-81
2024/01/25 08:17:53;;;;;;;;;;;;;;;3.90;100.00;102945.41;6272006;22;19945;-81
2024/01/25 08:20:18;;;;;;;;;;;;;;;3.92;100.00;102949.00;6273310;22;19982;-81
2024/01/25 08:22:43;;;;;;;;;;;;;;;3.94;100.00;102957.81;6274202;22;20004;-81
2024/01/25 08:25:09;;;;;;;;;;;;;;;3.97;100.00;102963.22;6244801;22;19903;-81
2024/01/25 08:27:34;;;;;;;;;;;;;;;3.98;100.00;102965.03;6245758;22;19907;-81
2024/01/25 08:30:00;;;;;;;;;;;;;;;4.02;100.00;102952.38;6245390;22;19911;-81
2024/01/25 08:32:25;;;;;;;;;;;;;;;4.05;100.00;102932.00;6273653;22;19934;-81
2024/01/25 08:34:50;;;;;;;;;;;;;;;4.08;100.00;102915.09;6273508;22;19907;-81
2024/01/25 08:37:16;;;;;;;;;;;;;;;4.15;100.00;102919.09;6272577;22;19957;-81
2024/01/25 08:39:43;;;;;;;;;;;;;;;4.18;100.00;102927.97;6245853;22;19910;-81
2024/01/25 08:42:08;;;;;;;;;;;;;;;4.24;100.00;102926.69;6273845;22;19921;-81
2024/01/25 08:44:33;;;;;;;;;;;;;;;4.26;100.00;102933.81;6245528;22;19977;-81
2024/01/25 08:46:59;;;;;;;;;;;;;;;4.28;100.00;102939.97;6245779;22;19934;-81
2024/01/25 08:49:24;;;;;;;;;;;;;;;4.32;100.00;102942.03;6246979;22;19964;-81
2024/01/25 08:51:50;;;;;;;;;;;;;;;4.37;100.00;102957.00;6243100;22;19907;-81
2024/01/25 08:54:15;;;;;;;;;;;;;;;4.41;100.00;102961.66;6272762;22;19903;-81
2024/01/25 08:56:40;;;;;;;;;;;;;;;4.45;100.00;102961.16;6242282;22;19907;-81
2024/01/25 08:59:07;;;;;;;;;;;;;;;4.48;100.00;102957.13;6241286;22;19907;-82
2024/01/25 09:01:32;;;;;;;;;;;;;;;4.52;100.00;102956.59;6269094;22;20332;-81
2024/01/25 09:04:02;;;;;;;;;;;;;;;4.58;100.00;102956.22;6269720;22;19907;-81
2024/01/25 09:06:27;;;;;;;;;;;;;;;4.62;100.00;102959.91;6271382;22;19930;-81
2024/01/25 09:08:52;;;;;;;;;;;;;;;4.66;100.00;102956.81;6272954;22;19914;-81
2024/01/25 09:11:18;;;;;;;;;;;;;;;4.69;100.00;102947.66;6273465;22;20238;-81
2024/01/25 09:13:45;;;;;;;;;;;;;;;4.74;100.00;102957.47;6273159;22;19911;-81
2024/01/25 09:16:10;;;;;;;;;;;;;;;4.77;100.00;102960.28;6273236;22;19903;-81
2024/01/25 09:18:35;;;;;;;;;;;;;;;4.81;100.00;102958.09;6272901;22;20305;-81
2024/01/25 09:21:00;;;;;;;;;;;;;;;4.87;100.00;102956.00;6273233;22;20330;-81
2024/01/25 09:23:26;;;;;;;;;;;;;;;4.92;100.00;102958.94;6272796;22;20307;-81
2024/01/25 09:25:51;;;;;;;;;;;;;;;4.98;100.00;102961.13;6245567;22;20298;-81
2024/01/25 09:28:17;;;;;;;;;;;;;;;5.08;100.00;102955.00;6271630;22;19919;-81
2024/01/25 09:30:42;;;;;;;;;;;;;;;5.28;100.00;102961.78;6272981;22;19997;-81
2024/01/25 09:33:07;;;;;;;;;;;;;;;5.47;100.00;102956.38;6273399;22;19914;-81
2024/01/25 09:35:32;;;;;;;;;;;;;;;5.62;100.00;102957.56;6270225;22;20242;-79
2024/01/25 09:37:58;;;;;;;;;;;;;;;5.81;100.00;102951.22;6271737;22;19995;-79
2024/01/25 09:40:23;;;;;;;;;;;;;;;5.93;100.00;102960.81;6272686;22;19907;-79
2024/01/25 09:42:49;;;;;;;;;;;;;;;5.96;100.00;102949.81;6273138;22;19922;-79
2024/01/25 09:45:18;;;;;;;;;;;;;;;5.95;100.00;102945.41;6273309;22;19907;-79
2024/01/25 09:47:44;;;;;;;;;;;;;;;5.88;100.00;102946.66;6275426;22;20338;-79
2024/01/25 09:50:09;;;;;;;;;;;;;;;5.85;100.00;102961.94;6275084;22;19911;-79
2024/01/25 09:52:35;;;;;;;;;;;;;;;5.82;100.00;102965.97;6275006;22;19953;-79
2024/01/25 09:55:01;;;;;;;;;;;;;;;5.79;100.00;102961.44;6274955;22;19958;-79
2024/01/25 09:57:28;;;;;;;;;;;;;;;5.78;100.00;102970.00;6275124;22;20219;-79
2024/01/25 09:59:55;;;;;;;;;;;;;;;5.76;100.00;102961.22;6275250;22;19915;-79
2024/01/25 10:02:20;;;;;;;;;;;;;;;5.76;100.00;102961.22;6248175;22;19907;-79
2024/01/25 10:04:49;;;;;;;;;;;;;;;5.74;100.00;102958.50;6274801;22;19914;-79
2024/01/25 10:07:14;;;;;;;;;;;;;;;5.72;100.00;102957.50;6275212;22;19940;-79
2024/01/25 10:09:40;;;;;;;;;;;;;;;5.72;100.00;102947.16;6275239;22;19918;-79
2024/01/25 10:12:05;;;;;;;;;;;;;;;5.73;100.00;102943.75;6275403;22;20280;-79
2024/01/25 10:14:31;;;;;;;;;;;;;;;5.74;100.00;102943.00;6274983;22;20305;-80
2024/01/25 10:16:57;;;;;;;;;;;;;;;5.74;100.00;102931.75;6275486;22;20016;-79
2024/01/25 10:19:23;;;;;;;;;;;;;;;5.75;100.00;102921.53;6275001;22;19935;-79
2024/01/25 10:21:49;;;;;;;;;;;;;;;5.77;100.00;102931.09;6275555;22;19949;-79
2024/01/25 10:24:14;;;;;;;;;;;;;;;5.79;100.00;102938.16;6247580;22;20322;-79
2024/01/25 10:26:40;;;;;;;;;;;;;;;5.81;100.00;102949.56;6274548;22;19938;-80
2024/01/25 10:29:06;;;;;;;;;;;;;;;5.84;100.00;102946.31;6274582;22;19911;-79
2024/01/25 10:31:32;;;;;;;;;;;;;;;5.87;100.00;102936.19;6248233;22;19907;-80
2024/01/25 10:33:57;;;;;;;;;;;;;;;5.90;100.00;102920.91;6274515;22;20278;-79
2024/01/25 10:36:22;;;;;;;;;;;;;;;5.94;100.00;102910.00;6274652;22;20121;-79
2024/01/25 10:38:48;;;;;;;;;;;;;;;5.97;100.00;102910.25;6275003;22;19903;-80
2024/01/25 10:41:13;;;;;;;;;;;;;;;6.00;100.00;102913.06;6274714;22;19913;-79
2024/01/25 10:43:38;;;;;;;;;;;;;;;6.04;100.00;102909.03;6273359;22;19916;-79
2024/01/25 10:46:05;;;;;;;;;;;;;;;6.09;100.00;102905.09;6248104;22;19903;-79
2024/01/25 10:48:30;;;;;;;;;;;;;;;6.12;100.00;102900.16;6275334;22;19994;-79
2024/01/25 10:50:56;;;;;;;;;;;;;;;6.17;100.00;102900.50;6248045;22;19936;-79
2024/01/25 10:53:23;;;;;;;;;;;;;;;6.20;100.00;102901.63;6275225;22;19957;-79
2024/01/25 10:55:49;;;;;;;;;;;;;;;6.23;100.00;102899.28;6274998;22;19910;-79
2024/01/25 10:58:14;;;;;;;;;;;;;;;6.27;100.00;102890.03;6247392;22;19903;-79
2024/01/25 11:00:39;;;;;;;;;;;;;;;6.30;100.00;102890.28;6275220;22;19973;-79
2024/01/25 11:03:06;;;;;;;;;;;;;;;6.35;100.00;102888.91;6274506;22;19903;-79
2024/01/25 11:05:31;;;;;;;;;;;;;;;6.38;100.00;102883.97;6274811;22;20104;-79
2024/01/25 11:07:57;;;;;;;;;;;;;;;6.41;100.00;102884.19;6247798;22;19986;-79
2024/01/25 11:10:23;;;;;;;;;;;;;;;6.44;100.00;102881.84;6274944;22;19907;-80
2024/01/25 11:12:55;;;;;;;;;;;;;;;6.48;100.00;102867.41;6275015;22;20215;-80
2024/01/25 11:15:29;;;;;;;;;;;;;;;6.50;100.00;102857.16;6247442;22;19948;-80
2024/01/25 11:17:55;;;;;;;;;;;;;;;6.52;100.00;102858.19;6275061;22;19903;-79
2024/01/25 11:20:21;;;;;;;;;;;;;;;6.54;100.00;102865.28;6274861;22;19914;-79
2024/01/25 11:22:46;;;;;;;;;;;;;;;6.57;100.00;102864.59;6275010;22;19907;-79
2024/01/25 11:25:21;;;;;;;;;;;;;;;6.59;100.00;102857.84;6274580;22;20376;-79
2024/01/25 11:27:47;;;;;;;;;;;;;;;6.63;100.00;102854.66;6247628;22;19925;-79
2024/01/25 11:30:13;;;;;;;;;;;;;;;6.66;100.00;102838.47;6274897;22;19914;-79
2024/01/25 11:32:39;;;;;;;;;;;;;;;6.67;100.00;102827.31;6274822;22;20238;-79
2024/01/25 11:35:04;;;;;;;;;;;;;;;6.69;100.00;102837.00;6274475;22;19903;-79
2024/01/25 11:37:30;;;;;;;;;;;;;;;6.71;100.00;102837.13;6247292;22;19907;-79
2024/01/25 11:39:55;;;;;;;;;;;;;;;6.74;100.00;102840.81;6274643;22;19914;-79
2024/01/25 11:42:20;;;;;;;;;;;;;;;6.76;100.00;102835.72;6274905;22;19915;-79
2024/01/25 11:44:46;;;;;;;;;;;;;;;6.78;100.00;102829.88;6246847;22;20314;-79
2024/01/25 11:47:11;;;;;;;;;;;;;;;6.81;100.00;102818.84;6274079;22;19927;-79
2024/01/25 11:49:36;;;;;;;;;;;;;;;6.83;100.00;102830.19;6273874;22;19907;-79
2024/01/25 11:52:04;;;;;;;;;;;;;;;6.85;100.00;102835.47;6247127;22;19903;-80
2024/01/25 11:54:29;;;;;;;;;;;;;;;6.86;100.00;102826.94;6273779;22;20054;-79
2024/01/25 11:56:54;;;;;;;;;;;;;;;6.87;100.00;102828.75;6273527;22;19937;-80
2024/01/25 11:59:19;;;;;;;;;;;;;;;6.88;100.00;102822.75;6274265;22;19907;-80
2024/01/25 12:01:45;;;;;;;;;;;;;;;6.90;100.00;102818.59;6274050;22;20305;-80
2024/01/25 12:04:10;;;;;;;;;;;;;;;6.92;100.00;102824.75;6273934;22;19910;-80
2024/01/25 12:06:36;;;;;;;;;;;;;;;6.93;100.00;102826.56;6273269;22;20314;-80
2024/01/25 12:09:10;;;;;;;;;;;;;;;6.93;100.00;102834.34;6273650;22;19951;-79
2024/01/25 12:11:36;;;;;;;;;;;;;;;6.95;100.00;102827.56;6274837;22;19958;-79
2024/01/25 12:14:01;;;;;;;;;;;;;;;6.95;100.00;102822.38;6246247;22;20321;-79
2024/01/25 12:16:26;;;;;;;;;;;;;;;6.95;100.00;102799.06;6273317;22;20392;-79
2024/01/25 12:18:51;;;;;;;;;;;;;;;6.97;100.00;102795.78;6246756;22;19903;-79
2024/01/25 12:21:17;;;;;;;;;;;;;;;6.99;100.00;102772.56;6246943;22;20375;-79
2024/01/25 12:23:43;;;;;;;;;;;;;;;6.99;100.00;102751.84;6273704;22;19910;-79
2024/01/25 12:26:10;;;;;;;;;;;;;;;7.01;100.00;102760.63;6273995;22;19931;-79